Station: Collie East  

  Atmospheric Gas Attenuation - ITU Rec 676-11   ----------------- dB/100km -----------------
Date Time Temp RH % AH g/m3 Dew Point Wind Direction Speed kph Gust kph Barometer mB Rainfall Since 9am 24GHz 47GHz 76GHz 122GHz 134GHz 241GHz
08/05 09:30 15.4 68 8.93 9.5 13 24 1013.1 0 20.2 26.0 40.3 105.8 100.7 346.7
08/05 09:20 15.1 70 9.03 9.7 9 13 1013.1 0 20.4 26.2 40.9 107.3 102.4 352.6
08/05 09:10 15.2 69 8.96 9.6 7 9 1013.1 0 20.3 26.1 40.5 106.4 101.3 348.9
08/05 09:00 14.5 72 8.96 9.5 13 20 1013.1 0 20.3 26.3 40.9 107.4 102.2 352.0
08/05 08:50 14.2 74 9.04 9.6 9 17 1013.1 0 20.5 26.5 41.4 108.6 103.7 357.1
08/05 08:40 13.5 78 9.12 9.7 7 11 1013.1 0 20.7 26.8 42.1 110.5 105.7 364.1
08/05 08:30 12.5 82 9.02 9.5 6 9 1013.1 0 20.6 27.0 42.2 110.8 105.7 364.0
08/05 08:20 11.2 88 8.92 9.3 7 7 1013.1 0 20.4 27.2 42.5 111.5 106.2 365.3
08/05 08:10 9.3 94 8.45 8.4 6 7 1013.1 0 19.5 27.0 41.5 108.9 102.2 351.2
08/05 08:00 8 94 7.77 7.1 2 7 1013.1 0 18.1 26.2 39.3 103.0 94.4 323.7
08/05 07:50 7.5 95 7.61 6.8 0 0 1013.1 0 17.8 26.1 38.9 101.9 92.8 318.0
08/05 07:40 7 94 7.29 6.1 0 0 1013.1 0 17.1 25.7 37.8 98.9 89.0 304.5
08/05 07:30 6.9 94 7.24 6 0 0 1013.1 0 17.0 25.6 37.6 98.5 88.4 302.5
08/05 07:20 6.9 94 7.24 6 0 0 1013.1 0 17.0 25.6 37.6 98.5 88.4 302.5
08/05 07:10 7.2 95 7.46 6.5 4 6 1013.1 0 17.4 25.9 38.4 100.6 91.1 311.9
08/05 07:00 7.3 95 7.51 6.6 4 6 1013.1 0 17.5 26.0 38.5 101.0 91.6 314.0
08/05 06:50 7.3 95 7.51 6.6 4 6 1013.1 0 17.5 26.0 38.5 101.0 91.6 314.0
08/05 06:40 7.2 95 7.46 6.5 6 7 1013.1 0 17.4 25.9 38.4 100.6 91.1 311.9
08/05 06:30 6.5 94 7.05 5.6 2 7 1013.1 0 16.6 25.4 37.0 96.9 86.2 294.8
08/05 06:20 6.4 93 6.93 5.4 0 0 1013.1 0 16.3 25.3 36.5 95.7 84.7 289.4
08/05 06:10 6.4 93 6.93 5.4 0 0 1013.1 0 16.3 25.3 36.5 95.7 84.7 289.4
08/05 06:00 6.4 93 6.93 5.4 0 0 1013.1 0 16.3 25.3 36.5 95.7 84.7 289.4
08/05 05:50 6.7 93 7.07 5.7 0 0 1013.1 0 16.6 25.4 37.0 96.8 86.3 295.0
08/05 05:40 6.7 92 6.99 5.5 0 0 1013.1 0 16.5 25.3 36.6 96.0 85.2 291.2
08/05 05:30 6.8 92 7.04 5.6 0 0 1013.1 0 16.6 25.3 36.8 96.4 85.7 293.2
08/05 05:20 7 92 7.13 5.8 0 0 1013.1 0 16.7 25.4 37.1 97.1 86.8 296.8
08/05 05:10 7.3 92 7.27 6.1 0 0 1013.1 0 17.0 25.6 37.5 98.3 88.3 302.4
08/05 05:00 7.1 91 7.1 5.7 0 0 1013.1 0 16.7 25.4 36.9 96.7 86.2 295.0
08/05 04:50 7.3 91 7.19 5.9 0 0 1013.1 0 16.9 25.4 37.2 97.4 87.2 298.5
08/05 04:40 7.4 90 7.16 5.9 4 6 1013.1 0 16.8 25.4 37.0 97.0 86.7 296.7
08/05 04:30 7.7 90 7.3 6.2 0 7 1013.1 0 17.1 25.5 37.5 98.2 88.3 302.3
08/05 04:20 7.7 88 7.14 5.8 0 0 1013.1 0 16.7 25.2 36.8 96.4 86.1 294.6
08/05 04:10 8.3 89 7.5 6.6 0 0 1013.1 0 17.5 25.7 38.0 99.6 90.3 309.5
08/05 04:00 8.3 88 7.42 6.4 2 7 1013.1 0 17.3 25.5 37.7 98.7 89.2 305.7
08/05 03:50 8.6 87 7.48 6.6 6 6 1013.1 0 17.4 25.6 37.8 99.0 89.7 307.3
08/05 03:40 8.2 90 7.54 6.7 9 9 1013.1 0 17.6 25.8 38.2 100.2 91.0 311.8
08/05 03:30 7.7 89 7.22 6 0 0 1013.1 0 16.9 25.4 37.1 97.3 87.2 298.4
08/05 03:20 7.8 88 7.18 5.9 0 0 1013.1 0 16.8 25.3 36.9 96.7 86.5 296.1
08/05 03:10 7.9 87 7.15 5.9 0 0 1013.1 0 16.7 25.2 36.7 96.2 86.0 294.3
08/05 03:00 8.2 87 7.29 6.2 0 0 1013.1 0 17.0 25.4 37.2 97.4 87.6 299.9
08/05 02:50 8.4 86 7.3 6.2 0 0 1013.1 0 17.0 25.3 37.1 97.3 87.5 299.6
08/05 02:40 8.4 84 7.13 5.9 0 0 1013.1 0 16.7 25.0 36.4 95.4 85.2 291.5
08/05 02:30 8.8 82 7.14 5.9 0 0 1013.1 0 16.7 24.9 36.3 95.0 84.9 290.5
08/05 02:20 9.1 81 7.19 6 0 0 1013.1 0 16.8 24.9 36.4 95.2 85.2 291.7
08/05 02:10 9.5 79 7.19 6 0 0 1013.1 0 16.8 24.8 36.2 94.7 84.8 290.3
08/05 02:00 10.1 77 7.28 6.3 0 0 1013.1 0 16.9 24.8 36.3 95.0 85.3 292.2
08/05 01:50 10.8 74 7.32 6.4 0 0 1013.1 0 17.0 24.7 36.1 94.6 85.1 291.5
08/05 01:40 11.5 72 7.44 6.6 4 6 1013.1 0 17.2 24.7 36.3 95.0 85.9 294.4
08/05 01:30 12.2 69 7.45 6.7 4 9 1013.1 0 17.2 24.5 36.0 94.3 85.2 292.2
08/05 01:20 12.7 68 7.57 7 6 9 1013.1 0 17.4 24.6 36.2 94.9 86.2 295.8
08/05 01:10 12.6 68 7.52 6.9 6 7 1013.1 0 17.3 24.5 36.1 94.5 85.7 293.9
08/05 01:00 13.1 67 7.65 7.1 6 15 1013.1 0 17.6 24.6 36.4 95.3 86.8 297.9
08/05 00:50 13.2 66 7.58 7 6 7 1013.1 0 17.4 24.4 36.0 94.4 85.8 294.4
08/05 00:40 13.4 65 7.56 7 6 9 1013.1 0 17.4 24.3 35.9 94.0 85.3 292.7
08/05 00:30 13.6 65 7.65 7.2 7 11 1013.1 0 17.6 24.4 36.1 94.7 86.3 296.0
08/05 00:20 13.7 64 7.58 7 7 7 1013.1 0 17.4 24.3 35.8 93.8 85.3 292.5
08/05 00:10 13.8 64 7.63 7.1 7 9 1013.1 0 17.5 24.3 36.0 94.2 85.8 294.4
08/05 00:00 13.8 64 7.63 7.1 7 11 1013.1 0 17.5 24.3 36.0 94.2 85.8 294.4
07/05 23:50 13.9 63 7.55 7 6 7 1013.1 0 17.3 24.2 35.6 93.3 84.7 290.5
07/05 23:40 14.3 62 7.62 7.1 7 9 1013.1 0 17.5 24.2 35.7 93.5 85.1 292.1
07/05 23:30 14.4 61 7.54 7 9 17 1013.1 0 17.3 24.0 35.4 92.6 84.0 288.2
07/05 23:20 14.4 61 7.54 7 9 13 1013.1 0 17.3 24.0 35.4 92.6 84.0 288.2
07/05 23:10 14.3 61 7.49 6.9 6 7 1013.1 0 17.2 24.0 35.2 92.2 83.5 286.3
07/05 23:00 14.6 60 7.51 6.9 9 19 1013.1 0 17.2 23.9 35.2 92.1 83.4 286.1
07/05 22:50 14.5 60 7.46 6.8 11 13 1013.1 0 17.1 23.9 35.0 91.7 82.9 284.3
07/05 22:40 14.8 60 7.6 7.1 11 13 1013.1 0 17.4 24.0 35.4 92.7 84.3 289.4
07/05 22:30 14.9 59 7.52 7 11 20 1013.1 0 17.2 23.9 35.1 91.8 83.2 285.5
07/05 22:20 14.9 59 7.52 7 7 9 1013.1 0 17.2 23.9 35.1 91.8 83.2 285.5
07/05 22:10 15.1 58 7.48 6.9 7 11 1013.1 0 17.1 23.8 34.8 91.2 82.5 283.1
07/05 22:00 15.3 57 7.44 6.8 9 17 1013.1 0 17.1 23.7 34.6 90.6 81.8 280.6
07/05 21:50 15.4 57 7.49 6.9 15 20 1013.1 0 17.2 23.7 34.7 90.9 82.3 282.4
07/05 21:40 15.5 57 7.53 7 11 15 1013.1 0 17.2 23.7 34.8 91.2 82.7 283.8
07/05 21:30 15.5 56 7.4 6.8 9 17 1013.1 0 17.0 23.5 34.4 89.9 81.1 278.2
07/05 21:20 15.5 56 7.4 6.8 7 9 1013.1 0 17.0 23.5 34.4 89.9 81.1 278.2
07/05 21:10 15.8 55 7.4 6.8 7 9 1013.1 0 16.9 23.5 34.2 89.6 80.8 277.1
07/05 21:00 15.6 56 7.45 6.9 9 13 1013.1 0 17.1 23.6 34.5 90.3 81.6 280.0
07/05 20:50 15.4 57 7.49 6.9 9 11 1013.1 0 17.2 23.7 34.7 90.9 82.3 282.4
07/05 20:40 15.2 57 7.4 6.7 7 7 1013.1 0 17.0 23.6 34.5 90.3 81.4 279.2
07/05 20:30 15.5 56 7.4 6.8 7 11 1013.1 0 17.0 23.5 34.4 89.9 81.1 278.2
07/05 20:20 15.6 56 7.45 6.9 7 7 1013.1 0 17.1 23.6 34.5 90.3 81.6 280.0
07/05 20:10 15.8 55 7.4 6.8 7 9 1013.1 0 16.9 23.5 34.2 89.6 80.8 277.1
07/05 20:00 15.8 55 7.4 6.8 7 11 1013.1 0 16.9 23.5 34.2 89.6 80.8 277.1
07/05 19:50 16.1 54 7.4 6.8 7 11 1013.1 0 16.9 23.4 34.1 89.3 80.5 276.1
07/05 19:40 16.4 53 7.4 6.8 9 13 1013.1 0 16.9 23.3 34.0 88.9 80.2 275.1
07/05 19:30 16.4 53 7.4 6.8 7 11 1013.1 0 16.9 23.3 34.0 88.9 80.2 275.1
07/05 19:20 16.5 53 7.44 6.9 9 11 1013.1 0 17.0 23.3 34.1 89.2 80.6 276.4
07/05 19:10 16.7 52 7.39 6.8 7 7 1013.1 0 16.9 23.2 33.8 88.5 79.8 273.6
07/05 19:00 16.5 53 7.44 6.9 7 15 1013.1 0 17.0 23.3 34.1 89.2 80.6 276.4
07/05 18:50 16.5 53 7.44 6.9 7 9 1013.1 0 17.0 23.3 34.1 89.2 80.6 276.4
07/05 18:40 16.6 53 7.49 7 7 9 1013.1 0 17.1 23.4 34.2 89.6 81.1 278.2
07/05 18:30 17 53 7.67 7.4 7 13 1013.1 0 17.5 23.6 34.7 90.9 82.9 284.5
07/05 18:20 17 52 7.52 7.1 6 7 1013.1 0 17.1 23.3 34.2 89.4 81.0 278.1
07/05 18:10 17.4 51 7.56 7.2 9 11 1013.1 0 17.2 23.3 34.1 89.4 81.1 278.4
07/05 18:00 17.6 50 7.5 7.1 7 11 1013.1 0 17.1 23.2 33.8 88.6 80.2 275.2
07/05 17:50 17.9 49 7.48 7 9 11 1013.1 0 17.0 23.0 33.6 88.1 79.7 273.3
07/05 17:40 18.1 48 7.42 6.9 7 9 1013.1 0 16.9 22.9 33.3 87.3 78.7 270.2
07/05 17:30 18.4 47 7.39 6.9 7 13 1013.1 0 16.8 22.8 33.1 86.7 78.1 267.9
07/05 17:20 18.7 46 7.36 6.9 11 13 1013.1 0 16.7 22.7 32.9 86.0 77.4 265.7
07/05 17:10 19 45 7.33 6.8 9 11 1013.1 0 16.7 22.6 32.7 85.4 76.8 263.5
07/05 17:00 19.5 44 7.38 6.9 9 19 1013.1 0 16.7 22.5 32.6 85.4 76.9 263.9

Last Refresh: 08-May-2026 11:05:12

Bureau of Meteorology